Time;durP1;ratioP1;P1;durP2;ratioP2;P2;SDS_P1;SDS_P2;PMS_P1;PMS_P2;Temp;Humidity;BMP_temperature;BMP_pressure;BME280_temperature;BME280_humidity;BME280_pressure;Samples;Min_cycle;Max_cycle;Signal;HPM_P1;HPM_P2
2020/12/17 14:41:30;;;;;;;13.23;6.53;;;9.50;92.40;;;;;;5082125;27;1705478;-36
2020/12/17 14:44:26;;;;;;;12.40;6.63;;;9.60;92.50;;;;;;5121886;27;27434;-34
2020/12/17 14:47:23;;;;;;;9.48;6.60;;;9.60;92.10;;;;;;5122036;27;27434;-36
2020/12/17 14:50:26;;;;;;;9.13;5.88;;;9.50;92.30;;;;;;5121975;27;27418;-36
2020/12/17 14:53:24;;;;;;;8.35;6.00;;;9.50;92.60;;;;;;5121597;27;27412;-36
2020/12/17 14:56:18;;;;;;;9.82;6.93;;;9.40;93.00;;;;;;5121869;27;27461;-37
2020/12/17 14:59:12;;;;;;;12.73;8.02;;;9.40;93.10;;;;;;5121534;27;27475;-38
2020/12/17 15:02:12;;;;;;;11.32;6.90;;;9.30;93.20;;;;;;5121510;27;27461;-37
2020/12/17 15:05:13;;;;;;;12.15;6.65;;;9.20;93.50;;;;;;5120903;27;27402;-37
2020/12/17 15:08:13;;;;;;;10.00;7.15;;;9.20;93.70;;;;;;5121563;27;27464;-37
2020/12/17 15:11:10;;;;;;;10.00;6.38;;;9.20;93.80;;;;;;5121076;27;27596;-38
2020/12/17 15:14:10;;;;;;;15.07;8.30;;;9.10;93.50;;;;;;5121644;27;27379;-36
2020/12/17 15:17:11;;;;;;;11.73;7.85;;;9.00;93.70;;;;;;5121287;27;27863;-37
2020/12/17 15:20:11;;;;;;;13.93;7.72;;;9.00;93.60;;;;;;5120978;27;27496;-36
2020/12/17 15:23:05;;;;;;;11.88;8.02;;;8.90;93.80;;;;;;5121195;27;27415;-37
2020/12/17 15:26:08;;;;;;;13.80;8.30;;;8.90;94.00;;;;;;5121155;27;26994;-36
2020/12/17 15:29:09;;;;;;;11.35;7.75;;;8.80;94.20;;;;;;5121030;27;27471;-36
2020/12/17 15:32:09;;;;;;;11.13;7.95;;;8.80;94.30;;;;;;5121303;27;27419;-37
2020/12/17 15:35:06;;;;;;;12.68;8.15;;;8.70;94.50;;;;;;5118034;27;27474;-36
2020/12/17 15:38:09;;;;;;;11.77;7.72;;;8.70;94.60;;;;;;5118967;27;27642;-37
2020/12/17 15:41:07;;;;;;;10.75;7.10;;;8.60;94.70;;;;;;5136860;27;27445;-38
2020/12/17 15:44:01;;;;;;;11.15;6.88;;;8.60;94.70;;;;;;5141879;27;27398;-36
2020/12/17 15:46:58;;;;;;;12.23;8.27;;;8.50;94.70;;;;;;5141553;27;27378;-36
2020/12/17 15:49:52;;;;;;;10.73;7.72;;;8.40;94.80;;;;;;5141526;27;27383;-37
2020/12/17 15:52:37;;;;;;;13.32;7.95;;;8.40;94.80;;;;;;5127240;27;27828;-39
2020/12/17 15:55:37;;;;;;;11.27;7.07;;;8.40;94.90;;;;;;5127884;27;27585;-37
2020/12/17 15:58:32;;;;;;;13.73;7.90;;;8.30;94.90;;;;;;5127543;27;27403;-37
2020/12/17 16:01:34;;;;;;;12.02;7.55;;;8.30;94.90;;;;;;5127504;27;27473;-37
2020/12/17 16:04:34;;;;;;;11.88;7.50;;;8.20;94.90;;;;;;5127124;27;27953;-37
2020/12/17 16:07:30;;;;;;;11.82;7.40;;;8.10;94.90;;;;;;5127158;27;27471;-37
2020/12/17 16:10:27;;;;;;;12.55;7.50;;;8.10;94.80;;;;;;5113418;27;27459;-38
2020/12/17 16:13:21;;;;;;;10.18;6.43;;;8.00;94.60;;;;;;5127264;27;27360;-37
2020/12/17 16:16:19;;;;;;;11.60;6.95;;;8.00;94.50;;;;;;5127525;27;27340;-36
2020/12/17 16:19:19;;;;;;;11.68;7.40;;;7.90;94.40;;;;;;5127041;27;27462;-36
2020/12/17 16:22:13;;;;;;;9.80;7.13;;;7.80;94.30;;;;;;5127135;27;27410;-36
2020/12/17 16:25:14;;;;;;;12.13;7.18;;;7.70;94.30;;;;;;5127355;27;27457;-37
2020/12/17 16:28:08;;;;;;;9.75;6.82;;;7.70;94.40;;;;;;5127047;27;27410;-36
2020/12/17 16:31:08;;;;;;;10.68;7.72;;;7.60;94.50;;;;;;5126976;27;27418;-36
2020/12/17 16:34:08;;;;;;;9.88;6.40;;;7.60;94.50;;;;;;5111051;27;27407;-37
2020/12/17 16:37:11;;;;;;;12.57;7.07;;;7.50;94.60;;;;;;5126919;27;27370;-37
2020/12/17 16:40:05;;;;;;;10.55;6.50;;;7.50;94.60;;;;;;5126323;27;27826;-37
2020/12/17 16:43:04;;;;;;;8.77;5.75;;;7.40;94.60;;;;;;5126753;27;27420;-38
2020/12/17 16:46:04;;;;;;;12.80;6.97;;;7.40;94.60;;;;;;5126866;27;27389;-38
2020/12/17 16:49:03;;;;;;;15.00;7.38;;;7.40;94.60;;;;;;5126652;27;27430;-37
2020/12/17 16:52:07;;;;;;;9.90;6.18;;;7.30;94.60;;;;;;5126626;27;27320;-37
2020/12/17 16:54:59;;;;;;;10.38;6.70;;;7.30;94.70;;;;;;5126878;27;27386;-37
2020/12/17 16:57:59;;;;;;;10.80;7.40;;;7.30;94.70;;;;;;5126906;27;27413;-37
2020/12/17 17:00:56;;;;;;;10.38;6.93;;;7.20;94.70;;;;;;5125933;27;27370;-37
2020/12/17 17:03:52;;;;;;;14.10;7.53;;;7.20;94.80;;;;;;5125567;27;27497;-38
2020/12/17 17:06:46;;;;;;;9.40;6.82;;;7.20;94.80;;;;;;5126363;27;27415;-38
2020/12/17 17:09:46;;;;;;;13.65;7.75;;;7.10;94.80;;;;;;5126566;27;27423;-37
2020/12/17 17:12:49;;;;;;;10.68;6.60;;;7.10;94.90;;;;;;5126253;27;27398;-37
2020/12/17 17:15:46;;;;;;;11.48;6.82;;;7.10;95.30;;;;;;5126271;27;27960;-37
2020/12/17 17:18:40;;;;;;;11.75;7.47;;;7.10;94.90;;;;;;5126449;27;27365;-37
2020/12/17 17:21:49;;;;;;;10.93;6.85;;;7.10;95.00;;;;;;5126336;27;27431;-37
2020/12/17 17:24:50;;;;;;;9.70;6.72;;;7.10;95.10;;;;;;5126232;27;27402;-38
2020/12/17 17:27:49;;;;;;;11.48;6.80;;;7.10;95.10;;;;;;5126235;27;27958;-38
2020/12/17 17:30:50;;;;;;;10.35;6.68;;;7.00;95.00;;;;;;5126292;27;27343;-38
2020/12/17 17:33:50;;;;;;;10.15;7.18;;;7.00;95.40;;;;;;5126163;27;27441;-38
2020/12/17 17:36:47;;;;;;;11.38;7.32;;;7.00;95.10;;;;;;5125950;27;27435;-37
2020/12/17 17:39:44;;;;;;;13.57;7.82;;;7.00;95.10;;;;;;5125118;27;27938;-37
2020/12/17 17:42:39;;;;;;;12.18;7.15;;;6.90;95.10;;;;;;5126113;27;27394;-37
2020/12/17 17:45:32;;;;;;;15.52;7.80;;;6.90;95.20;;;;;;5125901;27;27476;-37
2020/12/17 17:48:30;;;;;;;13.30;7.72;;;6.90;95.20;;;;;;5125809;27;27469;-37
2020/12/17 17:51:25;;;;;;;14.00;8.50;;;6.80;95.20;;;;;;5125698;27;27338;-37
2020/12/17 17:54:25;;;;;;;14.30;8.00;;;6.80;95.20;;;;;;5125606;27;27490;-37
2020/12/17 17:57:22;;;;;;;12.50;8.48;;;6.80;95.30;;;;;;5125443;27;27401;-37
2020/12/17 18:00:16;;;;;;;11.95;7.65;;;6.70;95.20;;;;;;5110348;27;27478;-37
2020/12/17 18:03:10;;;;;;;12.73;8.23;;;6.60;95.10;;;;;;5125824;27;27426;-37
2020/12/17 18:06:05;;;;;;;13.55;8.30;;;6.60;95.10;;;;;;5125757;27;27398;-38
2020/12/17 18:09:00;;;;;;;14.77;8.57;;;6.50;94.90;;;;;;5125799;27;27363;-36
2020/12/17 18:11:57;;;;;;;16.35;8.73;;;6.40;94.80;;;;;;5125696;27;27382;-37
2020/12/17 18:14:52;;;;;;;16.27;8.52;;;6.40;94.80;;;;;;5125276;27;27480;-38
2020/12/17 18:17:36;;;;;;;15.20;8.48;;;6.30;94.70;;;;;;5125528;27;27489;-40
2020/12/17 18:20:30;;;;;;;12.70;8.55;;;6.20;94.70;;;;;;5125355;27;27524;-37
2020/12/17 18:23:25;;;;;;;12.20;7.68;;;6.10;94.60;;;;;;5124664;27;27485;-37
2020/12/17 18:26:28;;;;;;;11.93;8.10;;;6.00;94.50;;;;;;5125160;27;27578;-37
2020/12/17 18:29:22;;;;;;;14.98;8.13;;;6.00;94.50;;;;;;5125145;27;27443;-37
2020/12/17 18:32:17;;;;;;;16.23;8.38;;;5.90;94.50;;;;;;5125409;27;27379;-37
2020/12/17 18:35:12;;;;;;;13.98;8.07;;;5.80;94.50;;;;;;5125385;27;27332;-37
2020/12/17 18:38:08;;;;;;;13.57;7.32;;;5.80;94.50;;;;;;5125277;27;27840;-37
2020/12/17 18:41:08;;;;;;;12.57;8.02;;;5.70;94.50;;;;;;5123945;27;27316;-38
2020/12/17 18:44:03;;;;;;;11.82;7.20;;;5.60;94.50;;;;;;5121703;27;27434;-37
2020/12/17 18:46:59;;;;;;;12.85;7.93;;;5.60;94.60;;;;;;5125208;27;27403;-37
2020/12/17 18:49:54;;;;;;;12.93;7.68;;;5.60;94.70;;;;;;5124916;27;27442;-37
2020/12/17 18:52:49;;;;;;;12.10;7.60;;;5.60;94.80;;;;;;5124808;27;27406;-37
2020/12/17 18:55:43;;;;;;;13.35;7.90;;;5.60;94.90;;;;;;5109592;27;27474;-36
2020/12/17 18:58:38;;;;;;;11.55;7.97;;;5.60;95.10;;;;;;5124761;27;27423;-36
2020/12/17 19:01:35;;;;;;;11.25;7.53;;;5.60;95.30;;;;;;5124990;27;27457;-36
2020/12/17 19:04:30;;;;;;;11.63;7.43;;;5.60;95.40;;;;;;5124956;27;27479;-36
2020/12/17 19:07:27;;;;;;;13.80;8.05;;;5.60;95.40;;;;;;5124799;27;27406;-36
2020/12/17 19:10:12;;;;;;;12.68;7.38;;;5.60;95.60;;;;;;5124979;27;27344;-38
2020/12/17 19:13:06;;;;;;;13.93;7.47;;;5.60;95.60;;;;;;5124607;27;27330;-35
2020/12/17 19:16:05;;;;;;;11.38;7.78;;;5.60;95.80;;;;;;5124756;27;27513;-36
2020/12/17 19:19:08;;;;;;;14.88;8.10;;;5.60;95.80;;;;;;5124086;27;26909;-36
2020/12/17 19:22:05;;;;;;;14.93;9.25;;;5.60;95.80;;;;;;5124503;27;27332;-36
2020/12/17 19:25:00;;;;;;;13.80;8.95;;;5.60;95.90;;;;;;5124862;27;27624;-36
2020/12/17 19:27:55;;;;;;;14.65;8.95;;;5.60;96.00;;;;;;5127512;27;27348;-37
2020/12/17 19:30:52;;;;;;;12.95;8.85;;;5.60;96.10;;;;;;5128287;27;27374;-36
2020/12/17 19:33:47;;;;;;;13.30;8.93;;;5.60;96.10;;;;;;5127918;27;27474;-35
2020/12/17 19:36:45;;;;;;;14.02;9.20;;;5.60;96.10;;;;;;5124597;27;27464;-35
2020/12/17 19:39:40;;;;;;;16.35;9.75;;;5.60;96.10;;;;;;5126904;27;27411;-36
2020/12/17 19:42:38;;;;;;;12.57;9.02;;;5.60;96.00;;;;;;5127809;27;27435;-35
2020/12/17 19:45:41;;;;;;;13.48;8.82;;;5.60;96.00;;;;;;5127416;27;27390;-36
2020/12/17 19:48:36;;;;;;;12.55;8.75;;;5.60;96.00;;;;;;5128007;27;27437;-35
2020/12/17 19:51:30;;;;;;;14.75;9.27;;;5.50;95.90;;;;;;5127697;27;27481;-35
2020/12/17 19:54:32;;;;;;;12.63;8.73;;;5.50;95.80;;;;;;5127710;27;27431;-36
2020/12/17 19:57:34;;;;;;;13.23;8.73;;;5.50;95.70;;;;;;5127528;27;27401;-35
2020/12/17 20:00:29;;;;;;;13.07;8.35;;;5.40;95.60;;;;;;5127258;27;27965;-38
2020/12/17 20:03:23;;;;;;;14.95;9.23;;;5.40;95.60;;;;;;5127417;27;27402;-37
2020/12/17 20:06:17;;;;;;;14.23;9.55;;;5.40;95.50;;;;;;5127510;27;27365;-38
2020/12/17 20:09:22;;;;;;;14.57;9.00;;;5.30;95.50;;;;;;5127602;27;27325;-36
2020/12/17 20:12:23;;;;;;;12.85;8.95;;;5.30;95.50;;;;;;5127078;27;27408;-37
2020/12/17 20:15:20;;;;;;;16.15;8.90;;;5.20;95.50;;;;;;5127553;27;27426;-37
2020/12/17 20:18:17;;;;;;;15.35;8.93;;;5.20;95.50;;;;;;5127525;27;27400;-35
2020/12/17 20:21:21;;;;;;;16.20;9.60;;;5.20;95.60;;;;;;5126875;27;27352;-36
2020/12/17 20:24:18;;;;;;;14.57;8.90;;;5.20;95.60;;;;;;5112043;27;27849;-35
2020/12/17 20:27:13;;;;;;;15.02;8.95;;;5.10;95.70;;;;;;5127104;27;27406;-35
2020/12/17 20:30:08;;;;;;;13.27;8.48;;;5.10;95.60;;;;;;5127095;27;27343;-35
2020/12/17 20:33:02;;;;;;;11.93;8.38;;;5.10;95.60;;;;;;5127236;27;27332;-34
2020/12/17 20:35:56;;;;;;;16.88;9.82;;;5.10;95.60;;;;;;5108248;27;27926;-35
2020/12/17 20:38:52;;;;;;;16.17;9.27;;;5.10;95.60;;;;;;5126633;27;27381;-37
2020/12/17 20:41:46;;;;;;;16.83;10.32;;;5.00;95.60;;;;;;5085625;28;27336;-37
2020/12/17 20:44:41;;;;;;;12.35;9.30;;;5.00;95.80;;;;;;5086151;28;27380;-35
